sensor_id;sensor_type;location;lat;lon;timestamp;pressure;altitude;pressure_sealevel;temperature;humidity
46614;BME280;32338;50.430;6.806;2023-09-07T00:00:32;66945.34;;;13.95;100.00
46614;BME280;32338;50.430;6.806;2023-09-07T00:02:58;66939.13;;;13.89;100.00
46614;BME280;32338;50.430;6.806;2023-09-07T00:05:25;66941.75;;;13.97;100.00
46614;BME280;32338;50.430;6.806;2023-09-07T00:07:52;66935.34;;;13.81;100.00
46614;BME280;32338;50.430;6.806;2023-09-07T00:10:18;66916.34;;;13.66;100.00
46614;BME280;32338;50.430;6.806;2023-09-07T00:12:46;66899.56;;;13.53;100.00
46614;BME280;32338;50.430;6.806;2023-09-07T00:15:13;66888.66;;;13.48;100.00
46614;BME280;32338;50.430;6.806;2023-09-07T00:17:40;66886.38;;;13.39;100.00
46614;BME280;32338;50.430;6.806;2023-09-07T00:20:07;66895.03;;;13.49;100.00
46614;BME280;32338;50.430;6.806;2023-09-07T00:22:37;66894.28;;;13.53;100.00
46614;BME280;32338;50.430;6.806;2023-09-07T00:25:04;66888.66;;;13.48;100.00
46614;BME280;32338;50.430;6.806;2023-09-07T00:27:32;66876.97;;;13.33;100.00
46614;BME280;32338;50.430;6.806;2023-09-07T00:30:00;66867.34;;;13.24;100.00
46614;BME280;32338;50.430;6.806;2023-09-07T00:32:26;66860.03;;;13.17;100.00
46614;BME280;32338;50.430;6.806;2023-09-07T00:34:53;66871.31;;;13.27;100.00
46614;BME280;32338;50.430;6.806;2023-09-07T00:37:20;66882.25;;;13.40;100.00
46614;BME280;32338;50.430;6.806;2023-09-07T00:39:46;66888.84;;;13.43;100.00
46614;BME280;32338;50.430;6.806;2023-09-07T00:42:13;66901.09;;;13.52;100.00
46614;BME280;32338;50.430;6.806;2023-09-07T00:44:39;66891.28;;;13.48;100.00
46614;BME280;32338;50.430;6.806;2023-09-07T00:47:07;66888.28;;;13.43;100.00
46614;BME280;32338;50.430;6.806;2023-09-07T00:49:34;66872.25;;;13.26;100.00
46614;BME280;32338;50.430;6.806;2023-09-07T00:52:01;66848.16;;;13.06;100.00
46614;BME280;32338;50.430;6.806;2023-09-07T00:54:28;66827.06;;;12.85;100.00
46614;BME280;32338;50.430;6.806;2023-09-07T00:56:55;66810.13;;;12.69;100.00
46614;BME280;32338;50.430;6.806;2023-09-07T00:59:22;66809.94;;;12.67;100.00
46614;BME280;32338;50.430;6.806;2023-09-07T01:01:49;66814.84;;;12.76;100.00
46614;BME280;32338;50.430;6.806;2023-09-07T01:04:17;66831.22;;;12.91;100.00
46614;BME280;32338;50.430;6.806;2023-09-07T01:06:46;66818.81;;;12.79;100.00
46614;BME280;32338;50.430;6.806;2023-09-07T01:09:19;66826.50;;;12.84;100.00
46614;BME280;32338;50.430;6.806;2023-09-07T01:11:47;66830.09;;;12.90;100.00
46614;BME280;32338;50.430;6.806;2023-09-07T01:14:14;66841.94;;;13.01;100.00
46614;BME280;32338;50.430;6.806;2023-09-07T01:16:40;66845.16;;;13.01;100.00
46614;BME280;32338;50.430;6.806;2023-09-07T01:19:07;66854.34;;;13.12;100.00
46614;BME280;32338;50.430;6.806;2023-09-07T01:21:38;66846.84;;;13.10;100.00
46614;BME280;32338;50.430;6.806;2023-09-07T01:24:07;66847.59;;;13.06;100.00
46614;BME280;32338;50.430;6.806;2023-09-07T01:26:34;66843.66;;;13.02;100.00
46614;BME280;32338;50.430;6.806;2023-09-07T01:29:04;66835.38;;;12.97;100.00
46614;BME280;32338;50.430;6.806;2023-09-07T01:31:34;66818.81;;;12.79;100.00
46614;BME280;32338;50.430;6.806;2023-09-07T01:34:01;66818.03;;;12.76;100.00
46614;BME280;32338;50.430;6.806;2023-09-07T01:36:28;66823.88;;;12.84;100.00
46614;BME280;32338;50.430;6.806;2023-09-07T01:38:56;66833.47;;;12.93;100.00
46614;BME280;32338;50.430;6.806;2023-09-07T01:41:23;66818.03;;;12.76;100.00
46614;BME280;32338;50.430;6.806;2023-09-07T01:43:50;66805.44;;;12.70;100.00
46614;BME280;32338;50.430;6.806;2023-09-07T01:46:16;66805.25;;;12.67;100.00
46614;BME280;32338;50.430;6.806;2023-09-07T01:48:43;66804.69;;;12.67;100.00
46614;BME280;32338;50.430;6.806;2023-09-07T01:51:09;66807.31;;;12.67;100.00
46614;BME280;32338;50.430;6.806;2023-09-07T01:53:36;66791.69;;;12.55;100.00
46614;BME280;32338;50.430;6.806;2023-09-07T01:56:04;66792.66;;;12.53;100.00
46614;BME280;32338;50.430;6.806;2023-09-07T01:58:31;66784.75;;;12.53;100.00
46614;BME280;32338;50.430;6.806;2023-09-07T02:00:57;66784.53;;;12.51;100.00
46614;BME280;32338;50.430;6.806;2023-09-07T02:03:24;66780.78;;;12.42;100.00
46614;BME280;32338;50.430;6.806;2023-09-07T02:05:52;66766.88;;;12.32;100.00
46614;BME280;32338;50.430;6.806;2023-09-07T02:08:18;66761.59;;;12.25;100.00
46614;BME280;32338;50.430;6.806;2023-09-07T02:10:45;66760.09;;;12.26;100.00
46614;BME280;32338;50.430;6.806;2023-09-07T02:13:13;66756.16;;;12.22;100.00
46614;BME280;32338;50.430;6.806;2023-09-07T02:15:40;66756.34;;;12.25;100.00
46614;BME280;32338;50.430;6.806;2023-09-07T02:18:06;66764.41;;;12.27;100.00
46614;BME280;32338;50.430;6.806;2023-09-07T02:20:33;66766.88;;;12.32;100.00
46614;BME280;32338;50.430;6.806;2023-09-07T02:23:00;66763.47;;;12.29;100.00
46614;BME280;32338;50.430;6.806;2023-09-07T02:25:28;66745.06;;;12.14;100.00
46614;BME280;32338;50.430;6.806;2023-09-07T02:27:55;66740.53;;;12.10;100.00
46614;BME280;32338;50.430;6.806;2023-09-07T02:30:23;66726.44;;;11.97;100.00
46614;BME280;32338;50.430;6.806;2023-09-07T02:32:50;66707.41;;;11.75;100.00
46614;BME280;32338;50.430;6.806;2023-09-07T02:35:16;66705.91;;;11.76;100.00
46614;BME280;32338;50.430;6.806;2023-09-07T02:37:43;66704.41;;;11.70;100.00
46614;BME280;32338;50.430;6.806;2023-09-07T02:40:10;66702.72;;;11.76;100.00
46614;BME280;32338;50.430;6.806;2023-09-07T02:42:37;66699.34;;;11.73;100.00
46614;BME280;32338;50.430;6.806;2023-09-07T02:45:05;66711.00;;;11.81;100.00
46614;BME280;32338;50.430;6.806;2023-09-07T02:47:33;66700.47;;;11.74;100.00
46614;BME280;32338;50.430;6.806;2023-09-07T02:49:59;66707.59;;;11.78;100.00
46614;BME280;32338;50.430;6.806;2023-09-07T02:52:26;66687.88;;;11.60;100.00
46614;BME280;32338;50.430;6.806;2023-09-07T02:54:52;66681.25;;;11.49;100.00
46614;BME280;32338;50.430;6.806;2023-09-07T02:57:19;66682.59;;;11.52;100.00
46614;BME280;32338;50.430;6.806;2023-09-07T02:59:46;66690.31;;;11.64;100.00
46614;BME280;32338;50.430;6.806;2023-09-07T03:02:12;66702.69;;;11.68;100.00
46614;BME280;32338;50.430;6.806;2023-09-07T03:04:40;66695.03;;;11.71;100.00
46614;BME280;32338;50.430;6.806;2023-09-07T03:07:07;66687.50;;;11.62;100.00
46614;BME280;32338;50.430;6.806;2023-09-07T03:09:34;66696.69;;;11.65;100.00
46614;BME280;32338;50.430;6.806;2023-09-07T03:12:01;66688.41;;;11.53;100.00
46614;BME280;32338;50.430;6.806;2023-09-07T03:14:27;66664.75;;;11.39;100.00
46614;BME280;32338;50.430;6.806;2023-09-07T03:16:54;66660.03;;;11.32;100.00
46614;BME280;32338;50.430;6.806;2023-09-07T03:19:20;66662.66;;;11.39;100.00
46614;BME280;32338;50.430;6.806;2023-09-07T03:21:48;66667.56;;;11.41;100.00
46614;BME280;32338;50.430;6.806;2023-09-07T03:24:15;66667.19;;;11.43;100.00
46614;BME280;32338;50.430;6.806;2023-09-07T03:26:42;66670.75;;;11.42;100.00
46614;BME280;32338;50.430;6.806;2023-09-07T03:29:08;66663.59;;;11.38;100.00
46614;BME280;32338;50.430;6.806;2023-09-07T03:31:35;66662.47;;;11.36;100.00
46614;BME280;32338;50.430;6.806;2023-09-07T03:34:02;66664.53;;;11.36;100.00
46614;BME280;32338;50.430;6.806;2023-09-07T03:36:29;66657.63;;;11.34;100.00
46614;BME280;32338;50.430;6.806;2023-09-07T03:38:57;66665.88;;;11.40;100.00
46614;BME280;32338;50.430;6.806;2023-09-07T03:41:23;66666.25;;;11.45;100.00
46614;BME280;32338;50.430;6.806;2023-09-07T03:43:55;66656.88;;;11.39;100.00
46614;BME280;32338;50.430;6.806;2023-09-07T03:46:22;66668.31;;;11.44;100.00
46614;BME280;32338;50.430;6.806;2023-09-07T03:48:48;66671.50;;;11.45;100.00
46614;BME280;32338;50.430;6.806;2023-09-07T03:51:15;66668.13;;;11.42;100.00
46614;BME280;32338;50.430;6.806;2023-09-07T03:53:41;66665.88;;;11.40;100.00
46614;BME280;32338;50.430;6.806;2023-09-07T03:56:09;66661.38;;;11.35;100.00
46614;BME280;32338;50.430;6.806;2023-09-07T03:58:36;66663.59;;;11.38;100.00
46614;BME280;32338;50.430;6.806;2023-09-07T04:01:02;66665.88;;;11.40;100.00
46614;BME280;32338;50.430;6.806;2023-09-07T04:03:29;66658.91;;;11.31;100.00
46614;BME280;32338;50.430;6.806;2023-09-07T04:05:57;66646.13;;;11.22;100.00
46614;BME280;32338;50.430;6.806;2023-09-07T04:08:23;66638.25;;;11.14;100.00
46614;BME280;32338;50.430;6.806;2023-09-07T04:10:50;66620.78;;;10.98;100.00
46614;BME280;32338;50.430;6.806;2023-09-07T04:13:18;66611.75;;;10.90;100.00
46614;BME280;32338;50.430;6.806;2023-09-07T04:15:45;66606.09;;;10.85;100.00
46614;BME280;32338;50.430;6.806;2023-09-07T04:18:12;66614.00;;;10.92;100.00
46614;BME280;32338;50.430;6.806;2023-09-07T04:20:40;66617.38;;;10.95;100.00
46614;BME280;32338;50.430;6.806;2023-09-07T04:23:07;66603.28;;;10.82;100.00
46614;BME280;32338;50.430;6.806;2023-09-07T04:25:33;66589.75;;;10.70;100.00
46614;BME280;32338;50.430;6.806;2023-09-07T04:28:00;66583.56;;;10.64;100.00
46614;BME280;32338;50.430;6.806;2023-09-07T04:30:28;66567.03;;;10.54;100.00
46614;BME280;32338;50.430;6.806;2023-09-07T04:32:54;66568.72;;;10.48;100.00
46614;BME280;32338;50.430;6.806;2023-09-07T04:35:26;66560.09;;;10.45;100.00
46614;BME280;32338;50.430;6.806;2023-09-07T04:37:53;66570.06;;;10.52;100.00
46614;BME280;32338;50.430;6.806;2023-09-07T04:40:19;66591.44;;;10.71;100.00
46614;BME280;32338;50.430;6.806;2023-09-07T04:42:46;66595.78;;;10.73;100.00
46614;BME280;32338;50.430;6.806;2023-09-07T04:45:13;66606.50;;;10.83;100.00
46614;BME280;32338;50.430;6.806;2023-09-07T04:47:41;66614.56;;;10.93;100.00
46614;BME280;32338;50.430;6.806;2023-09-07T04:50:08;66620.78;;;10.98;100.00
46614;BME280;32338;50.430;6.806;2023-09-07T04:52:34;66622.66;;;11.02;100.00
46614;BME280;32338;50.430;6.806;2023-09-07T04:55:01;66616.06;;;10.92;100.00
46614;BME280;32338;50.430;6.806;2023-09-07T04:57:27;66612.13;;;10.88;100.00
46614;BME280;32338;50.430;6.806;2023-09-07T04:59:54;66609.50;;;10.88;100.00
46614;BME280;32338;50.430;6.806;2023-09-07T05:02:20;66593.91;;;10.76;100.00
46614;BME280;32338;50.430;6.806;2023-09-07T05:04:48;66588.44;;;10.66;100.00
46614;BME280;32338;50.430;6.806;2023-09-07T05:07:15;66588.06;;;10.68;100.00
46614;BME280;32338;50.430;6.806;2023-09-07T05:09:42;66591.25;;;10.69;100.00
46614;BME280;32338;50.430;6.806;2023-09-07T05:12:08;66586.94;;;10.67;100.00
46614;BME280;32338;50.430;6.806;2023-09-07T05:14:36;66597.84;;;10.80;100.00
46614;BME280;32338;50.430;6.806;2023-09-07T05:17:03;66601.44;;;10.85;100.00
46614;BME280;32338;50.430;6.806;2023-09-07T05:19:29;66611.75;;;10.90;100.00
46614;BME280;32338;50.430;6.806;2023-09-07T05:21:57;66621.13;;;10.96;100.00
46614;BME280;32338;50.430;6.806;2023-09-07T05:24:24;66624.13;;;11.01;100.00
46614;BME280;32338;50.430;6.806;2023-09-07T05:26:51;66618.16;;;10.98;100.00
46614;BME280;32338;50.430;6.806;2023-09-07T05:29:18;66600.31;;;10.84;100.00
46614;BME280;32338;50.430;6.806;2023-09-07T05:31:45;66597.66;;;10.77;100.00
46614;BME280;32338;50.430;6.806;2023-09-07T05:34:12;66596.34;;;10.74;100.00
46614;BME280;32338;50.430;6.806;2023-09-07T05:36:38;66593.91;;;10.76;100.00
46614;BME280;32338;50.430;6.806;2023-09-07T05:39:06;66604.97;;;10.84;100.00
46614;BME280;32338;50.430;6.806;2023-09-07T05:41:33;66610.41;;;10.86;100.00
46614;BME280;32338;50.430;6.806;2023-09-07T05:44:00;66613.22;;;10.89;100.00
46614;BME280;32338;50.430;6.806;2023-09-07T05:46:27;66632.03;;;11.09;100.00
46614;BME280;32338;50.430;6.806;2023-09-07T05:48:54;66639.75;;;11.13;100.00
46614;BME280;32338;50.430;6.806;2023-09-07T05:51:21;66643.31;;;11.19;100.00
46614;BME280;32338;50.430;6.806;2023-09-07T05:53:47;66649.34;;;11.29;100.00
46614;BME280;32338;50.430;6.806;2023-09-07T05:56:15;66656.47;;;11.33;100.00
46614;BME280;32338;50.430;6.806;2023-09-07T05:58:42;66670.38;;;11.44;100.00
46614;BME280;32338;50.430;6.806;2023-09-07T06:01:09;66665.88;;;11.40;100.00
46614;BME280;32338;50.430;6.806;2023-09-07T06:03:36;66660.25;;;11.34;100.00
46614;BME280;32338;50.430;6.806;2023-09-07T06:06:04;66678.47;;;11.54;100.00
46614;BME280;32338;50.430;6.806;2023-09-07T06:08:31;66685.78;;;11.60;100.00
46614;BME280;32338;50.430;6.806;2023-09-07T06:10:57;66694.28;;;11.68;100.00
46614;BME280;32338;50.430;6.806;2023-09-07T06:13:26;66690.88;;;11.65;100.00
46614;BME280;32338;50.430;6.806;2023-09-07T06:15:53;66697.44;;;11.68;100.00
46614;BME280;32338;50.430;6.806;2023-09-07T06:18:19;66718.50;;;11.83;100.00
46614;BME280;32338;50.430;6.806;2023-09-07T06:20:46;66718.13;;;11.85;100.00
46614;BME280;32338;50.430;6.806;2023-09-07T06:23:12;66735.84;;;12.04;100.00
46614;BME280;32338;50.430;6.806;2023-09-07T06:25:39;66745.97;;;12.13;100.00
46614;BME280;32338;50.430;6.806;2023-09-07T06:28:06;66750.69;;;12.20;100.00
46614;BME280;32338;50.430;6.806;2023-09-07T06:30:34;66771.00;;;12.31;100.00
46614;BME280;32338;50.430;6.806;2023-09-07T06:33:01;66755.03;;;12.28;100.00
46614;BME280;32338;50.430;6.806;2023-09-07T06:35:27;66770.06;;;12.32;100.00
46614;BME280;32338;50.430;6.806;2023-09-07T06:37:54;66761.03;;;12.31;100.00
46614;BME280;32338;50.430;6.806;2023-09-07T06:40:21;66769.50;;;12.39;100.00
46614;BME280;32338;50.430;6.806;2023-09-07T06:42:47;66777.56;;;12.42;100.00
46614;BME280;32338;50.430;6.806;2023-09-07T06:45:14;66798.66;;;12.56;100.00
46614;BME280;32338;50.430;6.806;2023-09-07T06:47:42;66799.63;;;12.62;100.00
46614;BME280;32338;50.430;6.806;2023-09-07T06:50:09;66812.22;;;12.76;100.00
46614;BME280;32338;50.430;6.806;2023-09-07T06:52:35;66831.97;;;12.94;100.00
46614;BME280;32338;50.430;6.806;2023-09-07T06:55:02;66835.16;;;12.94;100.00
46614;BME280;32338;50.430;6.806;2023-09-07T06:57:29;66838.19;;;13.00;100.00
46614;BME280;32338;50.430;6.806;2023-09-07T06:59:55;66844.38;;;13.05;100.00
46614;BME280;32338;50.430;6.806;2023-09-07T07:02:22;66858.13;;;13.13;100.00
46614;BME280;32338;50.430;6.806;2023-09-07T07:04:50;66875.81;;;13.32;100.00
46614;BME280;32338;50.430;6.806;2023-09-07T07:07:17;66876.00;;;13.34;100.00
46614;BME280;32338;50.430;6.806;2023-09-07T07:09:43;66892.41;;;13.49;100.00
46614;BME280;32338;50.430;6.806;2023-09-07T07:12:10;66908.22;;;13.56;100.00
46614;BME280;32338;50.430;6.806;2023-09-07T07:14:37;66915.75;;;13.66;100.00
46614;BME280;32338;50.430;6.806;2023-09-07T07:17:04;66925.94;;;13.75;100.00
46614;BME280;32338;50.430;6.806;2023-09-07T07:19:31;66931.22;;;13.82;100.00
46614;BME280;32338;50.430;6.806;2023-09-07T07:21:59;66941.94;;;13.92;100.00
46614;BME280;32338;50.430;6.806;2023-09-07T07:24:25;66955.31;;;14.02;100.00
46614;BME280;32338;50.430;6.806;2023-09-07T07:26:52;66959.09;;;14.10;100.00
46614;BME280;32338;50.430;6.806;2023-09-07T07:29:19;66966.44;;;14.17;100.00
46614;BME280;32338;50.430;6.806;2023-09-07T07:31:45;66977.53;;;14.24;100.00
46614;BME280;32338;50.430;6.806;2023-09-07T07:34:13;66983.78;;;14.30;100.00
46614;BME280;32338;50.430;6.806;2023-09-07T07:36:39;66994.69;;;14.42;100.00
46614;BME280;32338;50.430;6.806;2023-09-07T07:39:07;67009.97;;;14.56;100.00
46614;BME280;32338;50.430;6.806;2023-09-07T07:41:34;67023.94;;;14.67;100.00
46614;BME280;32338;50.430;6.806;2023-09-07T07:44:01;67043.34;;;14.87;100.00
46614;BME280;32338;50.430;6.806;2023-09-07T07:46:28;67064.06;;;15.03;100.00
46614;BME280;32338;50.430;6.806;2023-09-07T07:48:54;67072.19;;;15.13;100.00
46614;BME280;32338;50.430;6.806;2023-09-07T07:51:21;67092.19;;;15.27;100.00
46614;BME280;32338;50.430;6.806;2023-09-07T07:53:47;67110.66;;;15.48;100.00
46614;BME280;32338;50.430;6.806;2023-09-07T07:56:16;67148.19;;;15.78;100.00
46614;BME280;32338;50.430;6.806;2023-09-07T07:58:43;67172.75;;;16.02;100.00
46614;BME280;32338;50.430;6.806;2023-09-07T08:01:13;67188.59;;;16.17;100.00
46614;BME280;32338;50.430;6.806;2023-09-07T08:03:40;67200.28;;;16.32;100.00
46614;BME280;32338;50.430;6.806;2023-09-07T08:06:07;67225.00;;;16.52;100.00
46614;BME280;32338;50.430;6.806;2023-09-07T08:08:33;67246.16;;;16.74;100.00
46614;BME280;32338;50.430;6.806;2023-09-07T08:11:00;67267.31;;;16.89;100.00
46614;BME280;32338;50.430;6.806;2023-09-07T08:13:32;67281.09;;;17.04;100.00
46614;BME280;32338;50.430;6.806;2023-09-07T08:16:00;67299.44;;;17.23;100.00
46614;BME280;32338;50.430;6.806;2023-09-07T08:18:27;67317.94;;;17.30;100.00
46614;BME280;32338;50.430;6.806;2023-09-07T08:20:54;67326.81;;;17.43;100.00
46614;BME280;32338;50.430;6.806;2023-09-07T08:23:21;67342.13;;;17.57;100.00
46614;BME280;32338;50.430;6.806;2023-09-07T08:25:50;67354.97;;;17.73;100.00
46614;BME280;32338;50.430;6.806;2023-09-07T08:28:17;67378.03;;;17.92;100.00
46614;BME280;32338;50.430;6.806;2023-09-07T08:30:45;67393.16;;;18.03;100.00
46614;BME280;32338;50.430;6.806;2023-09-07T08:33:12;67417.72;;;18.28;100.00
46614;BME280;32338;50.430;6.806;2023-09-07T08:35:39;67425.84;;;18.38;100.00
46614;BME280;32338;50.430;6.806;2023-09-07T08:38:09;67452.72;;;18.57;100.00
46614;BME280;32338;50.430;6.806;2023-09-07T08:40:36;67481.63;;;18.84;100.00
46614;BME280;32338;50.430;6.806;2023-09-07T08:43:08;67502.81;;;19.05;100.00
46614;BME280;32338;50.430;6.806;2023-09-07T08:45:41;67529.72;;;19.25;100.00
46614;BME280;32338;50.430;6.806;2023-09-07T08:48:10;67563.00;;;19.60;100.00
46614;BME280;32338;50.430;6.806;2023-09-07T08:50:38;67578.13;;;19.71;100.00
46614;BME280;32338;50.430;6.806;2023-09-07T08:53:08;67581.16;;;19.76;100.00
46614;BME280;32338;50.430;6.806;2023-09-07T08:55:35;67602.78;;;19.89;100.00
46614;BME280;32338;50.430;6.806;2023-09-07T08:58:01;67613.53;;;20.06;100.00
46614;BME280;32338;50.430;6.806;2023-09-07T09:00:28;67633.81;;;20.22;100.00
46614;BME280;32338;50.430;6.806;2023-09-07T09:02:56;67652.72;;;20.41;100.00
46614;BME280;32338;50.430;6.806;2023-09-07T09:05:28;67669.19;;;20.56;100.00
46614;BME280;32338;50.430;6.806;2023-09-07T09:08:01;67690.63;;;20.73;100.00
46614;BME280;32338;50.430;6.806;2023-09-07T09:10:29;67703.31;;;20.87;100.00
46614;BME280;32338;50.430;6.806;2023-09-07T09:12:56;67719.03;;;20.99;100.00
46614;BME280;32338;50.430;6.806;2023-09-07T09:15:24;67717.88;;;21.05;100.00
46614;BME280;32338;50.430;6.806;2023-09-07T09:17:51;67739.50;;;21.18;100.00
46614;BME280;32338;50.430;6.806;2023-09-07T09:20:22;67759.19;;;21.41;100.00
46614;BME280;32338;50.430;6.806;2023-09-07T09:22:54;67776.25;;;21.56;100.00
46614;BME280;32338;50.430;6.806;2023-09-07T09:25:22;67786.69;;;21.61;100.00
46614;BME280;32338;50.430;6.806;2023-09-07T09:27:48;67792.94;;;21.74;100.00
46614;BME280;32338;50.430;6.806;2023-09-07T09:30:15;67816.84;;;21.88;100.00
46614;BME280;32338;50.430;6.806;2023-09-07T09:32:42;67845.81;;;22.22;100.00
46614;BME280;32338;50.430;6.806;2023-09-07T09:35:09;67870.91;;;22.37;100.00
46614;BME280;32338;50.430;6.806;2023-09-07T09:37:45;67896.13;;;22.62;100.00
46614;BME280;32338;50.430;6.806;2023-09-07T09:40:15;67916.03;;;22.80;100.00
46614;BME280;32338;50.430;6.806;2023-09-07T09:42:43;67923.59;;;22.90;100.00
46614;BME280;32338;50.430;6.806;2023-09-07T09:45:11;67924.00;;;22.88;100.00
46614;BME280;32338;50.430;6.806;2023-09-07T09:47:39;67946.19;;;23.08;100.00
46614;BME280;32338;50.430;6.806;2023-09-07T09:50:07;67934.41;;;22.99;100.00
46614;BME280;32338;50.430;6.806;2023-09-07T09:52:34;67959.13;;;23.17;100.00
46614;BME280;32338;50.430;6.806;2023-09-07T09:55:03;68003.53;;;23.57;100.00
46614;BME280;32338;50.430;6.806;2023-09-07T09:57:32;68018.50;;;23.73;100.00
46614;BME280;32338;50.430;6.806;2023-09-07T09:59:59;68028.59;;;23.80;96.99
46614;BME280;32338;50.430;6.806;2023-09-07T10:02:32;68024.19;;;23.78;100.00
46614;BME280;32338;50.430;6.806;2023-09-07T10:05:01;68037.31;;;23.90;96.57
46614;BME280;32338;50.430;6.806;2023-09-07T10:07:41;68056.53;;;24.05;88.22
46614;BME280;32338;50.430;6.806;2023-09-07T10:10:09;68075.88;;;24.23;87.59
46614;BME280;32338;50.430;6.806;2023-09-07T10:12:41;68067.50;;;24.18;84.10
46614;BME280;32338;50.430;6.806;2023-09-07T10:15:20;68078.91;;;24.28;87.31
46614;BME280;32338;50.430;6.806;2023-09-07T10:17:46;68083.22;;;24.37;95.18
46614;BME280;32338;50.430;6.806;2023-09-07T10:20:15;68108.69;;;24.57;77.21
46614;BME280;32338;50.430;6.806;2023-09-07T10:22:42;68123.91;;;24.69;76.61
46614;BME280;32338;50.430;6.806;2023-09-07T10:25:18;68131.50;;;24.78;74.33
46614;BME280;32338;50.430;6.806;2023-09-07T10:27:46;68127.91;;;24.72;69.53
46614;BME280;32338;50.430;6.806;2023-09-07T10:30:13;68142.16;;;24.85;71.51
46614;BME280;32338;50.430;6.806;2023-09-07T10:32:45;68139.66;;;24.88;72.31
46614;BME280;32338;50.430;6.806;2023-09-07T10:35:15;68136.81;;;24.85;69.32
46614;BME280;32338;50.430;6.806;2023-09-07T10:37:44;68160.00;;;25.04;72.50
46614;BME280;32338;50.430;6.806;2023-09-07T10:40:21;68163.59;;;25.09;65.35
46614;BME280;32338;50.430;6.806;2023-09-07T10:43:00;68196.88;;;25.35;64.67
46614;BME280;32338;50.430;6.806;2023-09-07T10:45:27;68190.19;;;25.31;61.63
46614;BME280;32338;50.430;6.806;2023-09-07T10:47:54;68205.44;;;25.42;72.81
46614;BME280;32338;50.430;6.806;2023-09-07T10:50:20;68211.34;;;25.50;63.08
46614;BME280;32338;50.430;6.806;2023-09-07T10:52:47;68199.00;;;25.34;62.15
46614;BME280;32338;50.430;6.806;2023-09-07T10:55:15;68211.16;;;25.48;70.33
46614;BME280;32338;50.430;6.806;2023-09-07T10:57:42;68237.38;;;25.71;58.77
46614;BME280;32338;50.430;6.806;2023-09-07T11:00:12;68247.81;;;25.83;66.21
46614;BME280;32338;50.430;6.806;2023-09-07T11:02:40;68266.22;;;26.02;70.47
46614;BME280;32338;50.430;6.806;2023-09-07T11:05:07;68286.28;;;26.13;54.90
46614;BME280;32338;50.430;6.806;2023-09-07T11:07:36;68275.06;;;26.05;53.26
46614;BME280;32338;50.430;6.806;2023-09-07T11:10:05;68283.19;;;26.15;61.24
46614;BME280;32338;50.430;6.806;2023-09-07T11:12:36;68308.31;;;26.38;65.63
46614;BME280;32338;50.430;6.806;2023-09-07T11:15:04;68322.41;;;26.48;58.10
46614;BME280;32338;50.430;6.806;2023-09-07T11:17:32;68336.81;;;26.64;58.15
46614;BME280;32338;50.430;6.806;2023-09-07T11:20:03;68341.56;;;26.70;60.46
46614;BME280;32338;50.430;6.806;2023-09-07T11:22:31;68362.94;;;26.85;55.95
46614;BME280;32338;50.430;6.806;2023-09-07T11:24:59;68364.63;;;26.86;60.88
46614;BME280;32338;50.430;6.806;2023-09-07T11:27:29;68349.41;;;26.75;61.38
46614;BME280;32338;50.430;6.806;2023-09-07T11:29:56;68361.38;;;26.86;63.77
46614;BME280;32338;50.430;6.806;2023-09-07T11:32:23;68373.38;;;26.97;53.31
46614;BME280;32338;50.430;6.806;2023-09-07T11:34:52;68394.66;;;27.18;54.58
46614;BME280;32338;50.430;6.806;2023-09-07T11:37:23;68408.75;;;27.29;58.34
46614;BME280;32338;50.430;6.806;2023-09-07T11:39:50;68424.59;;;27.41;52.81
46614;BME280;32338;50.430;6.806;2023-09-07T11:42:16;68452.75;;;27.69;62.03
46614;BME280;32338;50.430;6.806;2023-09-07T11:44:43;68448.50;;;27.70;54.41
46614;BME280;32338;50.430;6.806;2023-09-07T11:47:09;68464.63;;;27.87;55.39
46614;BME280;32338;50.430;6.806;2023-09-07T11:49:36;68487.56;;;28.00;56.64
46614;BME280;32338;50.430;6.806;2023-09-07T11:52:05;68530.03;;;28.41;53.46
46614;BME280;32338;50.430;6.806;2023-09-07T11:54:31;68512.72;;;28.23;50.41
46614;BME280;32338;50.430;6.806;2023-09-07T11:56:58;68543.56;;;28.51;52.01
46614;BME280;32338;50.430;6.806;2023-09-07T11:59:24;68554.13;;;28.55;47.41
46614;BME280;32338;50.430;6.806;2023-09-07T12:01:53;68546.84;;;28.51;53.03
46614;BME280;32338;50.430;6.806;2023-09-07T12:04:20;68563.00;;;28.68;54.24
46614;BME280;32338;50.430;6.806;2023-09-07T12:06:46;68565.06;;;28.75;51.80
46614;BME280;32338;50.430;6.806;2023-09-07T12:09:14;68571.03;;;28.75;49.41
46614;BME280;32338;50.430;6.806;2023-09-07T12:11:42;68583.59;;;28.87;50.09
46614;BME280;32338;50.430;6.806;2023-09-07T12:14:09;68578.63;;;28.85;42.88
46614;BME280;32338;50.430;6.806;2023-09-07T12:16:35;68564.75;;;28.70;43.38
46614;BME280;32338;50.430;6.806;2023-09-07T12:19:02;68639.63;;;29.37;52.68
46614;BME280;32338;50.430;6.806;2023-09-07T12:21:28;68659.78;;;29.58;47.25
46614;BME280;32338;50.430;6.806;2023-09-07T12:23:55;68680.22;;;29.74;47.39
46614;BME280;32338;50.430;6.806;2023-09-07T12:26:23;68657.34;;;29.53;45.43
46614;BME280;32338;50.430;6.806;2023-09-07T12:28:50;68666.19;;;29.56;46.31
46614;BME280;32338;50.430;6.806;2023-09-07T12:31:16;68658.81;;;29.59;50.93
46614;BME280;32338;50.430;6.806;2023-09-07T12:33:43;68661.19;;;29.54;46.21
46614;BME280;32338;50.430;6.806;2023-09-07T12:36:09;68694.50;;;29.87;46.15
46614;BME280;32338;50.430;6.806;2023-09-07T12:38:37;68726.56;;;30.16;44.05
46614;BME280;32338;50.430;6.806;2023-09-07T12:41:03;68728.16;;;30.24;42.81
46614;BME280;32338;50.430;6.806;2023-09-07T12:43:32;68728.13;;;30.15;44.47
46614;BME280;32338;50.430;6.806;2023-09-07T12:45:58;68698.38;;;29.88;39.06
46614;BME280;32338;50.430;6.806;2023-09-07T12:48:25;68745.84;;;30.31;46.17
46614;BME280;32338;50.430;6.806;2023-09-07T12:50:52;68794.25;;;30.79;40.31
46614;BME280;32338;50.430;6.806;2023-09-07T12:53:18;68830.75;;;31.10;41.43